createdAt,value
2022-11-21T00:01:01.046Z,85.80
2022-11-21T00:03:27.852Z,85.30
2022-11-21T00:05:54.671Z,85.00
2022-11-21T00:08:21.694Z,84.10
2022-11-21T00:10:48.774Z,84.00
2022-11-21T00:13:16.626Z,83.80
2022-11-21T00:15:43.967Z,84.10
2022-11-21T00:18:13.711Z,84.10
2022-11-21T00:20:41.328Z,83.90
2022-11-21T00:23:08.347Z,83.60
2022-11-21T00:25:35.558Z,83.30
2022-11-21T00:28:02.402Z,83.20
2022-11-21T00:30:29.627Z,83.30
2022-11-21T00:32:58.209Z,83.40
2022-11-21T00:35:25.078Z,83.50
2022-11-21T00:37:51.940Z,83.70
2022-11-21T00:40:18.788Z,84.10
2022-11-21T00:42:45.697Z,84.20
2022-11-21T00:45:12.745Z,84.20
2022-11-21T00:47:39.769Z,84.70
2022-11-21T00:50:06.894Z,84.80
2022-11-21T00:52:33.754Z,85.00
2022-11-21T00:55:00.581Z,85.10
2022-11-21T00:57:27.391Z,85.10
2022-11-21T00:59:54.293Z,85.00
2022-11-21T01:02:21.243Z,84.90
2022-11-21T01:04:48.018Z,84.70
2022-11-21T01:07:15.093Z,84.50
2022-11-21T01:09:41.896Z,84.50
2022-11-21T01:12:08.727Z,84.10
2022-11-21T01:14:35.592Z,84.20
2022-11-21T01:17:02.416Z,84.90
2022-11-21T01:19:29.228Z,84.30
2022-11-21T01:21:56.192Z,84.40
2022-11-21T01:24:22.927Z,84.50
2022-11-21T01:26:51.178Z,84.50
2022-11-21T01:29:18.659Z,84.60
2022-11-21T01:31:45.518Z,84.60
2022-11-21T01:34:12.264Z,84.70
2022-11-21T01:36:39.198Z,84.90
2022-11-21T01:39:06.468Z,84.50
2022-11-21T01:41:36.472Z,84.90
2022-11-21T01:44:06.736Z,85.20
2022-11-21T01:46:33.535Z,85.30
2022-11-21T01:49:03.304Z,85.50
2022-11-21T01:51:33.261Z,85.80
2022-11-21T01:54:03.313Z,86.00
2022-11-21T01:56:33.334Z,86.10
2022-11-21T01:59:02.308Z,86.20
2022-11-21T02:01:32.507Z,86.30
2022-11-21T02:04:01.577Z,86.60
2022-11-21T02:06:29.468Z,86.80
2022-11-21T02:08:57.566Z,86.90
2022-11-21T02:11:39.743Z,87.00
2022-11-21T02:16:56.989Z,87.40
2022-11-21T02:19:46.887Z,87.50
2022-11-21T02:22:23.367Z,87.70
2022-11-21T02:25:09.405Z,87.90
2022-11-21T02:27:36.380Z,88.10
2022-11-21T02:30:03.940Z,88.50
2022-11-21T02:32:38.128Z,88.20
2022-11-21T02:35:05.329Z,88.20
2022-11-21T02:37:33.243Z,88.10
2022-11-21T02:40:01.693Z,88.00
2022-11-21T02:42:36.633Z,88.30
2022-11-21T02:45:20.089Z,88.10
2022-11-21T02:47:50.411Z,88.20
2022-11-21T02:50:23.926Z,88.40
2022-11-21T02:52:50.826Z,88.20
2022-11-21T02:55:17.603Z,88.30
2022-11-21T02:57:44.539Z,88.40
2022-11-21T03:00:11.531Z,88.30
2022-11-21T03:02:38.248Z,88.20
2022-11-21T03:05:06.306Z,88.80
2022-11-21T03:07:33.192Z,88.20
2022-11-21T03:09:59.916Z,88.30
2022-11-21T03:12:26.672Z,88.40
2022-11-21T03:14:53.419Z,88.00
2022-11-21T03:17:20.155Z,88.10
2022-11-21T03:19:46.987Z,88.00
2022-11-21T03:22:14.675Z,87.90
2022-11-21T03:24:41.970Z,87.80
2022-11-21T03:27:08.794Z,88.00
2022-11-21T03:29:35.585Z,87.80
2022-11-21T03:32:02.303Z,87.80
2022-11-21T03:34:29.348Z,87.80
2022-11-21T03:36:56.354Z,87.90
2022-11-21T03:39:23.181Z,87.70
2022-11-21T03:41:49.956Z,87.80
2022-11-21T03:44:16.716Z,87.40
2022-11-21T03:46:45.065Z,87.60
2022-11-21T03:49:12.432Z,87.50
2022-11-21T03:51:39.222Z,87.60
2022-11-21T03:54:06.402Z,87.60
2022-11-21T03:56:33.371Z,87.40
2022-11-21T03:59:00.087Z,87.50
2022-11-21T04:01:26.975Z,87.60
2022-11-21T04:03:54.037Z,87.80
2022-11-21T04:06:22.242Z,88.00
2022-11-21T04:08:49.494Z,88.00
2022-11-21T04:11:16.360Z,88.10
2022-11-21T04:13:43.130Z,88.10
2022-11-21T04:16:09.915Z,88.00
2022-11-21T04:18:36.741Z,87.60
2022-11-21T04:21:05.109Z,87.50
2022-11-21T04:23:31.930Z,87.60
2022-11-21T04:25:58.773Z,87.70
2022-11-21T04:28:25.483Z,87.80
2022-11-21T04:30:54.892Z,87.60
2022-11-21T04:33:23.890Z,87.50
2022-11-21T04:35:50.630Z,87.20
2022-11-21T04:38:17.351Z,87.10
2022-11-21T04:40:45.291Z,87.00
2022-11-21T04:43:12.027Z,87.80
2022-11-21T04:45:38.893Z,87.60
2022-11-21T04:48:05.741Z,87.30
2022-11-21T04:50:32.503Z,87.00
2022-11-21T04:52:59.292Z,87.00
2022-11-21T04:55:28.959Z,87.10
2022-11-21T04:57:55.692Z,87.20
2022-11-21T05:00:24.457Z,87.40
2022-11-21T05:02:51.801Z,87.80
2022-11-21T05:05:18.584Z,87.60
2022-11-21T05:07:45.434Z,87.90
2022-11-21T05:13:15.276Z,87.90
2022-11-21T05:15:43.130Z,87.70
2022-11-21T05:18:10.164Z,87.60
2022-11-21T05:20:37.187Z,87.20
2022-11-21T05:23:03.941Z,87.40
2022-11-21T05:25:30.741Z,87.50
2022-11-21T05:27:57.615Z,87.50
2022-11-21T05:30:24.469Z,87.20
2022-11-21T05:32:51.266Z,87.50
2022-11-21T05:35:18.174Z,87.30
2022-11-21T05:37:44.950Z,87.40
2022-11-21T05:40:11.899Z,87.50
2022-11-21T05:42:58.612Z,87.40
2022-11-21T05:45:25.396Z,87.30
2022-11-21T05:47:52.179Z,87.50
2022-11-21T05:50:19.011Z,88.00
2022-11-21T05:52:45.709Z,88.00
2022-11-21T05:55:12.502Z,88.20
2022-11-21T05:57:39.265Z,88.20
2022-11-21T06:00:06.298Z,88.20
2022-11-21T06:02:51.763Z,88.20
2022-11-21T06:05:18.530Z,88.00
2022-11-21T06:07:45.396Z,87.90
2022-11-21T06:10:12.255Z,87.70
2022-11-21T06:12:38.948Z,87.70
2022-11-21T06:15:05.861Z,87.80
2022-11-21T06:17:32.707Z,88.10
2022-11-21T06:19:59.420Z,88.50
2022-11-21T06:22:26.193Z,88.80
2022-11-21T06:24:53.050Z,88.90
2022-11-21T06:27:19.809Z,89.40
2022-11-21T06:29:46.535Z,90.10
2022-11-21T06:32:13.567Z,90.30
2022-11-21T06:34:40.396Z,90.40
2022-11-21T06:37:07.463Z,90.00
2022-11-21T06:39:34.273Z,89.80
2022-11-21T06:42:01.471Z,89.10
2022-11-21T06:44:28.541Z,88.80
2022-11-21T06:46:55.584Z,88.70
2022-11-21T06:49:22.446Z,88.50
2022-11-21T06:51:49.284Z,88.50
2022-11-21T06:54:17.049Z,88.20
2022-11-21T06:56:44.204Z,88.20
2022-11-21T06:59:11.270Z,88.10
2022-11-21T07:01:38.318Z,88.20
2022-11-21T07:04:05.108Z,88.60
2022-11-21T07:06:31.946Z,89.00
2022-11-21T07:09:31.500Z,88.80
2022-11-21T07:11:45.623Z,88.80
2022-11-21T07:14:12.386Z,88.60
2022-11-21T07:16:39.159Z,89.10
2022-11-21T07:19:06.497Z,88.60
2022-11-21T07:24:14.171Z,87.70
2022-11-21T07:26:40.992Z,87.60
2022-11-21T07:29:07.851Z,87.40
2022-11-21T07:31:34.586Z,87.90
2022-11-21T07:34:01.438Z,88.10
2022-11-21T07:36:32.347Z,88.30
2022-11-21T07:38:59.451Z,88.60
2022-11-21T07:41:26.270Z,88.50
2022-11-21T07:43:53.170Z,88.90
2022-11-21T07:46:19.902Z,88.90
2022-11-21T07:48:46.953Z,89.10
2022-11-21T07:51:13.744Z,89.50
2022-11-21T07:53:40.717Z,89.40
2022-11-21T07:56:09.676Z,90.00
2022-11-21T07:58:36.586Z,89.70
2022-11-21T08:01:05.270Z,89.60
2022-11-21T08:03:32.480Z,89.20
2022-11-21T08:06:01.210Z,89.30
2022-11-21T08:08:27.984Z,89.00
2022-11-21T08:10:57.678Z,88.90
2022-11-21T08:13:24.727Z,88.80
2022-11-21T08:15:51.550Z,88.40
2022-11-21T08:18:21.511Z,88.20
2022-11-21T08:20:48.416Z,88.10
2022-11-21T08:23:15.721Z,88.10
2022-11-21T08:25:43.235Z,87.70
2022-11-21T08:28:11.088Z,88.40
2022-11-21T08:30:41.412Z,88.00
2022-11-21T08:33:08.296Z,88.00
2022-11-21T08:35:38.551Z,87.60
2022-11-21T08:38:05.862Z,87.60
2022-11-21T08:40:33.185Z,87.10
2022-11-21T08:43:07.465Z,87.00
2022-11-21T08:45:35.287Z,87.20
2022-11-21T08:48:02.208Z,87.30
2022-11-21T08:50:29.149Z,87.60
2022-11-21T08:52:59.499Z,87.70
2022-11-21T08:55:26.239Z,88.30
2022-11-21T08:57:53.023Z,87.20
2022-11-21T09:00:19.904Z,87.30
2022-11-21T09:02:46.623Z,87.30
2022-11-21T09:05:13.350Z,87.20
2022-11-21T09:07:41.357Z,86.80
2022-11-21T09:10:08.470Z,87.10
2022-11-21T09:12:35.210Z,87.00
2022-11-21T09:15:20.624Z,86.60
2022-11-21T09:18:07.543Z,86.70
2022-11-21T09:20:38.722Z,86.50
2022-11-21T09:23:09.252Z,86.70
2022-11-21T09:25:36.320Z,86.50
2022-11-21T09:28:03.708Z,85.80
2022-11-21T09:30:30.598Z,85.60
2022-11-21T09:33:01.309Z,85.40
2022-11-21T09:35:28.140Z,85.80
2022-11-21T09:37:54.886Z,85.70
2022-11-21T09:40:22.202Z,85.90
2022-11-21T09:43:01.702Z,85.90
2022-11-21T09:45:34.787Z,86.10
2022-11-21T09:48:03.701Z,86.20
2022-11-21T09:50:30.453Z,86.20
2022-11-21T09:53:01.390Z,86.10
2022-11-21T09:55:34.428Z,85.90
2022-11-21T09:58:05.039Z,85.90
2022-11-21T10:00:31.975Z,86.10
2022-11-21T10:03:00.047Z,86.00
2022-11-21T10:05:34.548Z,86.30
2022-11-21T10:08:05.207Z,86.40
2022-11-21T10:10:34.980Z,86.50
2022-11-21T10:13:20.655Z,87.20
2022-11-21T10:15:57.434Z,86.40
2022-11-21T10:18:34.072Z,86.40
2022-11-21T10:21:16.085Z,85.70
2022-11-21T10:23:52.531Z,85.30
2022-11-21T10:26:23.188Z,85.30
2022-11-21T10:28:57.129Z,85.60
2022-11-21T10:31:24.811Z,85.60
2022-11-21T10:33:52.657Z,85.60
2022-11-21T10:36:36.152Z,85.80
2022-11-21T10:39:05.691Z,85.50
2022-11-21T10:42:05.254Z,85.20
2022-11-21T10:44:51.156Z,85.20
2022-11-21T10:47:28.583Z,85.20
2022-11-21T10:50:12.935Z,85.30
2022-11-21T10:52:43.052Z,85.30
2022-11-21T10:55:11.498Z,85.80
2022-11-21T10:57:41.216Z,85.10
2022-11-21T11:00:11.262Z,84.70
2022-11-21T11:02:41.598Z,84.50
2022-11-21T11:05:28.028Z,83.90
2022-11-21T11:08:04.139Z,83.80
2022-11-21T11:10:31.820Z,84.00
2022-11-21T11:13:44.741Z,84.30
2022-11-21T11:16:07.241Z,84.10
2022-11-21T11:18:35.372Z,83.60
2022-11-21T11:21:11.141Z,83.60
2022-11-21T11:23:37.984Z,83.50
2022-11-21T11:26:17.906Z,83.50
2022-11-21T11:28:44.737Z,83.80
2022-11-21T11:31:11.944Z,84.00
2022-11-21T11:33:49.926Z,83.90
2022-11-21T11:36:34.631Z,83.80
2022-11-21T11:39:05.235Z,83.70
2022-11-21T11:42:15.304Z,84.00
2022-11-21T11:45:21.232Z,83.10
2022-11-21T11:47:55.590Z,82.80
2022-11-21T11:50:25.116Z,82.60
2022-11-21T11:52:59.270Z,82.50
2022-11-21T11:55:37.112Z,82.30
2022-11-21T12:01:39.865Z,82.00
2022-11-21T12:04:36.721Z,81.80
2022-11-21T12:11:07.136Z,82.00
2022-11-21T12:13:40.578Z,82.10
2022-11-21T12:16:13.710Z,82.10
2022-11-21T12:19:29.593Z,82.40
2022-11-21T12:22:06.826Z,82.10
2022-11-21T12:24:39.809Z,81.90
2022-11-21T12:27:09.669Z,82.20
2022-11-21T12:30:06.167Z,82.10
2022-11-21T12:33:08.511Z,81.90
2022-11-21T12:36:17.928Z,81.60
2022-11-21T12:42:17.081Z,81.30
2022-11-21T12:44:50.359Z,81.10
2022-11-21T12:47:53.798Z,81.20
2022-11-21T12:51:07.609Z,81.30
2022-11-21T12:54:02.704Z,81.40
2022-11-21T13:00:39.852Z,81.40
2022-11-21T13:03:34.608Z,80.90
2022-11-21T13:06:13.513Z,81.30
2022-11-21T13:08:41.670Z,81.30
2022-11-21T13:11:50.609Z,81.60
2022-11-21T13:14:36.577Z,81.70
2022-11-21T13:17:18.988Z,80.60
2022-11-21T13:19:49.284Z,80.70
2022-11-21T13:22:35.105Z,80.90
2022-11-21T13:25:11.881Z,80.80
2022-11-21T13:27:39.817Z,80.40
2022-11-21T13:30:06.609Z,80.10
2022-11-21T13:32:45.938Z,79.40
2022-11-21T13:35:22.132Z,79.50
2022-11-21T13:37:52.525Z,88.80
2022-11-21T13:40:29.798Z,87.90
2022-11-21T13:43:31.987Z,85.20
2022-11-21T13:45:58.832Z,83.10
2022-11-21T13:48:36.414Z,81.90
2022-11-21T13:51:15.420Z,81.50
2022-11-21T13:53:42.287Z,81.20
2022-11-21T13:56:12.903Z,80.30
2022-11-21T13:58:49.009Z,80.40
2022-11-21T14:01:34.740Z,80.30
2022-11-21T14:04:19.390Z,79.80
2022-11-21T14:06:46.515Z,80.20
2022-11-21T14:09:13.378Z,80.10
2022-11-21T14:11:53.696Z,79.90
2022-11-21T14:14:38.524Z,80.00
2022-11-21T14:17:05.370Z,80.10
2022-11-21T14:19:38.948Z,80.10
2022-11-21T14:22:34.599Z,80.60
2022-11-21T14:25:09.323Z,81.10
2022-11-21T14:27:44.963Z,81.40
2022-11-21T14:30:30.906Z,81.50
2022-11-21T14:33:17.283Z,81.50
2022-11-21T14:35:47.831Z,81.50
2022-11-21T14:38:17.945Z,81.60
2022-11-21T14:40:44.986Z,81.50
2022-11-21T14:43:44.575Z,81.70
2022-11-21T14:46:16.460Z,81.80
2022-11-21T14:48:43.738Z,81.80
2022-11-21T14:51:12.110Z,81.60
2022-11-21T14:53:49.643Z,81.40
2022-11-21T14:56:24.623Z,81.40
2022-11-21T14:58:55.611Z,81.50
2022-11-21T15:01:28.088Z,81.70
2022-11-21T15:04:02.369Z,82.00
2022-11-21T15:06:33.362Z,82.10
2022-11-21T15:10:05.736Z,82.20
2022-11-21T15:12:02.018Z,82.20
2022-11-21T15:14:49.751Z,82.10
2022-11-21T15:17:18.895Z,82.20
2022-11-21T15:19:47.210Z,82.70
2022-11-21T15:22:23.954Z,82.80
2022-11-21T15:24:50.761Z,82.70
2022-11-21T15:27:27.005Z,83.50
2022-11-21T15:30:03.234Z,82.70
2022-11-21T15:32:33.215Z,82.50
2022-11-21T15:35:00.082Z,82.10
2022-11-21T15:37:27.869Z,82.20
2022-11-21T15:39:54.948Z,82.00
2022-11-21T15:42:37.561Z,82.00
2022-11-21T15:45:20.365Z,82.00
2022-11-21T15:48:07.119Z,82.30
2022-11-21T15:50:34.809Z,82.40
2022-11-21T15:53:01.539Z,82.40
2022-11-21T15:55:30.182Z,84.40
2022-11-21T15:57:57.026Z,83.40
2022-11-21T16:00:24.014Z,82.40
2022-11-21T16:02:50.870Z,81.70
2022-11-21T16:05:17.657Z,82.00
2022-11-21T16:07:44.421Z,82.20
2022-11-21T16:10:21.045Z,82.40
2022-11-21T16:12:52.881Z,82.50
2022-11-21T16:15:19.652Z,82.50
2022-11-21T16:17:47.720Z,82.50
2022-11-21T16:20:15.274Z,82.30
2022-11-21T16:22:47.103Z,82.60
2022-11-21T16:25:14.623Z,82.70
2022-11-21T16:27:41.608Z,82.50
2022-11-21T16:30:08.783Z,82.60
2022-11-21T16:32:38.070Z,82.90
2022-11-21T16:35:05.279Z,82.80
2022-11-21T16:37:32.828Z,82.80
2022-11-21T16:39:59.545Z,82.90
2022-11-21T16:42:26.848Z,82.90
2022-11-21T16:44:53.616Z,83.00
2022-11-21T16:47:20.449Z,82.90
2022-11-21T16:49:48.651Z,83.00
2022-11-21T16:52:15.681Z,83.30
2022-11-21T16:54:42.442Z,83.10
2022-11-21T16:57:09.460Z,83.10
2022-11-21T16:59:38.646Z,83.10
2022-11-21T17:02:05.668Z,83.20
2022-11-21T17:04:32.762Z,83.40
2022-11-21T17:07:00.442Z,83.40
2022-11-21T17:09:27.383Z,83.60
2022-11-21T17:11:56.924Z,83.70
2022-11-21T17:14:23.798Z,83.10
2022-11-21T17:16:50.917Z,83.60
2022-11-21T17:19:17.692Z,83.60
2022-11-21T17:21:44.506Z,83.50
2022-11-21T17:24:12.424Z,83.60
2022-11-21T17:26:39.258Z,83.50
2022-11-21T17:29:06.052Z,83.60
2022-11-21T17:31:33.106Z,83.40
2022-11-21T17:34:00.852Z,83.70
2022-11-21T17:36:28.869Z,83.90
2022-11-21T17:38:55.777Z,83.90
2022-11-21T17:41:23.421Z,84.00
2022-11-21T17:43:53.146Z,83.90
2022-11-21T17:46:20.199Z,84.00
2022-11-21T17:48:53.211Z,84.00
2022-11-21T17:51:22.756Z,83.90
2022-11-21T17:53:50.501Z,83.70
2022-11-21T17:56:18.518Z,84.00
2022-11-21T17:58:45.579Z,83.90
2022-11-21T18:01:18.676Z,83.90
2022-11-21T18:03:53.541Z,83.90
2022-11-21T18:06:20.630Z,84.00
2022-11-21T18:08:48.964Z,84.10
2022-11-21T18:11:34.580Z,84.00
2022-11-21T18:14:08.879Z,84.30
2022-11-21T18:16:36.157Z,83.80
2022-11-21T18:19:03.203Z,83.90
2022-11-21T18:21:30.720Z,84.00
2022-11-21T18:23:59.744Z,83.70
2022-11-21T18:26:27.997Z,83.70
2022-11-21T18:29:13.565Z,83.90
2022-11-21T18:31:44.187Z,84.00
2022-11-21T18:34:12.185Z,84.30
2022-11-21T18:36:39.405Z,84.50
2022-11-21T18:39:14.007Z,84.70
2022-11-21T18:41:41.933Z,84.80
2022-11-21T18:44:09.221Z,84.80
2022-11-21T18:46:36.531Z,85.00
2022-11-21T18:49:06.540Z,85.10
2022-11-21T18:51:34.588Z,85.20
2022-11-21T18:54:04.291Z,85.40
2022-11-21T18:56:31.232Z,85.40
2022-11-21T18:58:59.075Z,85.20
2022-11-21T19:01:28.188Z,85.30
2022-11-21T19:03:55.767Z,85.50
2022-11-21T19:06:23.623Z,85.50
2022-11-21T19:08:53.036Z,85.70
2022-11-21T19:11:20.467Z,85.70
2022-11-21T19:13:48.029Z,85.60
2022-11-21T19:16:16.200Z,85.50
2022-11-21T19:18:45.205Z,85.40
2022-11-21T19:21:18.496Z,85.80
2022-11-21T19:23:45.314Z,85.70
2022-11-21T19:26:16.457Z,85.80
2022-11-21T19:28:44.021Z,85.90
2022-11-21T19:31:11.987Z,86.10
2022-11-21T19:33:39.583Z,85.80
2022-11-21T19:36:07.661Z,85.90
2022-11-21T19:38:34.553Z,85.70
2022-11-21T19:41:16.047Z,85.70
2022-11-21T19:43:44.639Z,85.70
2022-11-21T19:46:12.314Z,85.50
2022-11-21T19:48:39.469Z,85.40
2022-11-21T19:51:12.839Z,85.70
2022-11-21T19:53:54.029Z,85.80
2022-11-21T19:56:25.693Z,85.80
2022-11-21T19:58:56.588Z,85.60
2022-11-21T20:01:33.155Z,85.60
2022-11-21T20:04:07.402Z,85.70
2022-11-21T20:07:11.561Z,85.60
2022-11-21T20:13:24.238Z,85.60
2022-11-21T20:16:28.487Z,85.30
2022-11-21T20:19:13.610Z,85.50
2022-11-21T20:21:57.364Z,85.90
2022-11-21T20:27:59.577Z,86.10
2022-11-21T20:30:28.691Z,86.10
2022-11-21T20:32:56.085Z,85.90
2022-11-21T20:36:04.736Z,85.90
2022-11-21T20:38:39.350Z,85.80
2022-11-21T20:41:21.946Z,85.90
2022-11-21T20:45:48.129Z,86.00
2022-11-21T21:09:00.222Z,86.80
2022-11-21T21:11:54.908Z,86.80
2022-11-21T21:14:22.162Z,86.80
2022-11-21T21:16:49.357Z,86.90
2022-11-21T21:19:16.596Z,86.80
2022-11-21T21:21:43.559Z,86.60
2022-11-21T21:24:12.012Z,86.50
2022-11-21T21:26:44.453Z,86.30
2022-11-21T21:29:12.640Z,86.60
2022-11-21T21:31:51.695Z,86.50
2022-11-21T21:34:21.326Z,86.50
2022-11-21T21:37:15.745Z,86.40
2022-11-21T21:39:45.831Z,86.50
2022-11-21T21:42:22.045Z,86.60
2022-11-21T21:44:54.936Z,86.80
2022-11-21T21:47:25.658Z,86.70
2022-11-21T21:49:52.617Z,86.60
2022-11-21T21:52:19.561Z,86.90
2022-11-21T21:54:46.393Z,87.20
2022-11-21T21:57:13.438Z,86.80
2022-11-21T21:59:40.317Z,86.60
2022-11-21T22:02:07.302Z,86.50
2022-11-21T22:04:34.309Z,86.40
2022-11-21T22:07:01.383Z,86.50
2022-11-21T22:09:30.050Z,87.00
2022-11-21T22:11:57.211Z,86.40
2022-11-21T22:14:24.092Z,86.00
2022-11-21T22:16:52.155Z,86.40
2022-11-21T22:19:21.020Z,86.70
2022-11-21T22:21:47.890Z,86.80
2022-11-21T22:24:31.021Z,86.70
2022-11-21T22:26:58.098Z,87.20
2022-11-21T22:29:25.115Z,87.70
2022-11-21T22:31:52.281Z,87.70
2022-11-21T22:34:19.235Z,87.80
2022-11-21T22:36:46.925Z,87.60
2022-11-21T22:39:14.047Z,87.30
2022-11-21T22:41:40.967Z,87.30
2022-11-21T22:44:07.974Z,87.20
2022-11-21T22:46:34.953Z,87.30
2022-11-21T22:49:02.755Z,87.40
2022-11-21T22:51:30.687Z,87.50
2022-11-21T22:53:59.402Z,87.50
2022-11-21T22:56:27.213Z,87.50
2022-11-21T22:58:54.225Z,87.60
2022-11-21T23:01:22.174Z,87.30
2022-11-21T23:03:49.326Z,87.30
2022-11-21T23:06:17.774Z,87.40
2022-11-21T23:08:44.723Z,87.50
2022-11-21T23:11:13.211Z,87.50
2022-11-21T23:13:43.172Z,87.50
2022-11-21T23:16:10.623Z,87.60
2022-11-21T23:18:37.767Z,87.90
2022-11-21T23:21:05.322Z,87.70
2022-11-21T23:23:32.532Z,87.90
2022-11-21T23:25:59.717Z,88.10
2022-11-21T23:28:26.857Z,88.30
2022-11-21T23:30:53.727Z,88.50
2022-11-21T23:33:20.858Z,88.60
2022-11-21T23:35:48.418Z,88.60
2022-11-21T23:38:16.215Z,88.90
2022-11-21T23:40:44.881Z,89.00
2022-11-21T23:43:12.229Z,89.00
2022-11-21T23:45:39.086Z,89.10
2022-11-21T23:48:06.410Z,89.00
2022-11-21T23:50:33.298Z,89.10
2022-11-21T23:53:00.272Z,89.10
2022-11-21T23:55:27.090Z,89.10
2022-11-21T23:57:53.895Z,89.20
